createdAt,value
2019-04-16T00:00:45.344Z,7.5
2019-04-16T00:01:47.350Z,7.58
2019-04-16T00:02:42.705Z,7.53
2019-04-16T00:03:42.672Z,7.55
2019-04-16T00:04:42.660Z,7.56
2019-04-16T00:05:42.643Z,7.64
2019-04-16T00:06:42.713Z,7.48
2019-04-16T00:07:42.677Z,7.48
2019-04-16T00:08:42.650Z,7.36
2019-04-16T00:09:42.654Z,7.31
2019-04-16T00:10:42.671Z,7.07
2019-04-16T00:11:42.676Z,7.1
2019-04-16T00:12:42.706Z,7.01
2019-04-16T00:13:42.667Z,7.08
2019-04-16T00:14:42.677Z,7.15
2019-04-16T00:15:46.433Z,6.96
2019-04-16T00:16:47.058Z,7.11
2019-04-16T00:17:44.295Z,7.18
2019-04-16T00:18:56.322Z,7.1
2019-04-16T00:19:42.647Z,7.04
2019-04-16T00:20:43.335Z,7.05
2019-04-16T00:21:46.001Z,7.05
2019-04-16T00:22:42.690Z,6.9
2019-04-16T00:23:42.695Z,6.95
2019-04-16T00:24:42.705Z,7.01
2019-04-16T00:25:42.708Z,6.92
2019-04-16T00:26:42.716Z,6.82
2019-04-16T00:27:42.794Z,6.86
2019-04-16T00:28:42.712Z,6.85
2019-04-16T00:29:44.927Z,6.8
2019-04-16T00:30:42.719Z,6.75
2019-04-16T00:31:43.001Z,6.64
2019-04-16T00:32:45.340Z,6.56
2019-04-16T00:33:47.615Z,6.6
2019-04-16T00:34:47.274Z,6.75
2019-04-16T00:35:46.367Z,6.53
2019-04-16T00:36:42.703Z,6.56
2019-04-16T00:37:42.688Z,6.64
2019-04-16T00:38:46.315Z,6.46
2019-04-16T00:39:42.680Z,6.57
2019-04-16T00:40:43.120Z,6.5
2019-04-16T00:41:42.708Z,6.56
2019-04-16T00:42:42.693Z,6.74
2019-04-16T00:43:44.181Z,6.68
2019-04-16T00:44:42.750Z,6.65
2019-04-16T00:45:42.732Z,6.52
2019-04-16T00:46:42.696Z,6.47
2019-04-16T00:47:42.730Z,6.52
2019-04-16T00:48:42.717Z,6.57
2019-04-16T00:49:43.396Z,6.64
2019-04-16T00:50:42.691Z,6.59
2019-04-16T00:51:42.779Z,6.5
2019-04-16T00:52:42.964Z,6.59
2019-04-16T00:53:44.882Z,6.39
2019-04-16T00:54:47.185Z,6.41
2019-04-16T00:55:47.454Z,6.22
2019-04-16T00:56:43.470Z,6.17
2019-04-16T00:57:42.749Z,6.25
2019-04-16T00:58:42.805Z,6.17
2019-04-16T00:59:42.709Z,6.07
2019-04-16T01:00:42.714Z,5.9
2019-04-16T01:01:42.740Z,5.87
2019-04-16T01:02:42.722Z,6.02
2019-04-16T01:03:42.826Z,5.97
2019-04-16T01:04:42.713Z,6.01
2019-04-16T01:05:42.745Z,5.9
2019-04-16T01:06:45.560Z,5.83
2019-04-16T01:07:42.697Z,5.64
2019-04-16T01:08:56.615Z,5.7
2019-04-16T01:09:42.748Z,5.64
2019-04-16T01:10:42.729Z,5.76
2019-04-16T01:11:42.736Z,5.73
2019-04-16T01:12:42.740Z,5.51
2019-04-16T01:13:42.731Z,5.7
2019-04-16T01:14:42.737Z,5.72
2019-04-16T01:15:42.741Z,5.64
2019-04-16T01:16:42.771Z,5.64
2019-04-16T01:17:42.731Z,5.55
2019-04-16T01:18:44.488Z,5.41
2019-04-16T01:19:46.027Z,5.33
2019-04-16T01:20:45.647Z,5.37
2019-04-16T01:21:47.291Z,5.49
2019-04-16T01:22:46.528Z,5.33
2019-04-16T01:23:42.803Z,5.38
2019-04-16T01:24:42.742Z,5.37
2019-04-16T01:25:42.833Z,5.31
2019-04-16T01:26:42.752Z,5.41
2019-04-16T01:27:42.778Z,5.46
2019-04-16T01:28:42.730Z,5.46
2019-04-16T01:29:42.791Z,5.54
2019-04-16T01:30:42.741Z,5.52
2019-04-16T01:31:44.448Z,5.49
2019-04-16T01:32:46.009Z,5.55
2019-04-16T01:33:43.371Z,5.58
2019-04-16T01:34:42.774Z,5.54
2019-04-16T01:35:42.768Z,5.79
2019-04-16T01:36:42.783Z,5.7
2019-04-16T01:37:42.888Z,5.84
2019-04-16T01:38:42.796Z,5.9
2019-04-16T01:39:47.333Z,5.73
2019-04-16T01:40:42.808Z,5.91
2019-04-16T01:41:42.858Z,5.8
2019-04-16T01:42:42.823Z,5.95
2019-04-16T01:43:42.769Z,5.9
2019-04-16T01:44:42.772Z,5.99
2019-04-16T01:45:42.973Z,5.95
2019-04-16T01:46:42.782Z,5.92
2019-04-16T01:47:42.784Z,5.9
2019-04-16T01:48:44.809Z,5.87
2019-04-16T01:49:46.934Z,5.95
2019-04-16T01:50:46.253Z,5.9
2019-04-16T01:51:44.537Z,5.94
2019-04-16T01:52:42.785Z,5.99
2019-04-16T01:53:42.784Z,5.94
2019-04-16T01:54:42.818Z,5.94
2019-04-16T01:55:45.133Z,6.02
2019-04-16T01:56:42.782Z,5.98
2019-04-16T01:57:42.734Z,5.99
2019-04-16T01:58:42.798Z,5.99
2019-04-16T01:59:42.770Z,6.07
2019-04-16T02:00:44.557Z,5.91
2019-04-16T02:01:45.732Z,6.01
2019-04-16T02:02:43.427Z,5.91
2019-04-16T02:03:42.780Z,5.88
2019-04-16T02:04:42.864Z,6.05
2019-04-16T02:05:42.782Z,5.92
2019-04-16T02:06:42.852Z,6.01
2019-04-16T02:07:42.780Z,5.99
2019-04-16T02:08:42.867Z,6.02
2019-04-16T02:09:42.796Z,6.09
2019-04-16T02:10:44.181Z,6.12
2019-04-16T02:11:46.478Z,6.07
2019-04-16T02:12:46.324Z,6.06
2019-04-16T02:13:45.733Z,6.13
2019-04-16T02:14:42.813Z,5.99
2019-04-16T02:15:42.820Z,5.9
2019-04-16T02:16:42.865Z,5.76
2019-04-16T02:17:42.835Z,5.84
2019-04-16T02:18:42.819Z,5.84
2019-04-16T02:19:42.804Z,5.84
2019-04-16T02:20:44.756Z,5.91
2019-04-16T02:21:46.400Z,6.02
2019-04-16T02:22:47.642Z,5.99
2019-04-16T02:23:45.267Z,6.02
2019-04-16T02:24:42.823Z,5.98
2019-04-16T02:25:42.823Z,6.12
2019-04-16T02:26:42.856Z,6.06
2019-04-16T02:27:42.844Z,6.09
2019-04-16T02:28:42.930Z,6.07
2019-04-16T02:29:42.876Z,5.99
2019-04-16T02:30:44.923Z,5.9
2019-04-16T02:31:42.906Z,5.92
2019-04-16T02:32:42.833Z,5.88
2019-04-16T02:33:42.881Z,5.77
2019-04-16T02:34:42.869Z,5.74
2019-04-16T02:35:42.911Z,5.58
2019-04-16T02:36:42.818Z,5.7
2019-04-16T02:37:43.026Z,5.55
2019-04-16T02:38:53.073Z,5.65
2019-04-16T02:39:57.823Z,5.73
2019-04-16T02:40:43.206Z,5.61
2019-04-16T02:41:42.862Z,5.61
2019-04-16T02:42:42.934Z,5.55
2019-04-16T02:43:46.419Z,5.47
2019-04-16T02:44:48.418Z,5.46
2019-04-16T02:45:42.875Z,5.43
2019-04-16T02:46:42.955Z,5.52
2019-04-16T02:47:47.413Z,5.43
2019-04-16T02:48:49.902Z,5.31
2019-04-16T02:49:42.873Z,5.15
2019-04-16T02:50:42.843Z,5.18
2019-04-16T02:51:46.782Z,5.12
2019-04-16T02:52:42.872Z,5.2
2019-04-16T02:53:42.863Z,5.22
2019-04-16T02:54:42.890Z,5.28
2019-04-16T02:55:48.185Z,5.15
2019-04-16T02:56:42.888Z,5.16
2019-04-16T02:57:42.970Z,5.31
2019-04-16T02:58:42.916Z,5.29
2019-04-16T02:59:48.697Z,5.36
2019-04-16T03:00:42.913Z,5.31
2019-04-16T03:01:42.895Z,5.36
2019-04-16T03:02:42.956Z,5.26
2019-04-16T03:03:42.888Z,5.19
2019-04-16T03:04:43.342Z,5.19
2019-04-16T03:05:42.922Z,5.19
2019-04-16T03:06:42.925Z,5.22
2019-04-16T03:07:42.932Z,5.13
2019-04-16T03:08:42.883Z,5.15
2019-04-16T03:10:00.940Z,5.19
2019-04-16T03:10:46.823Z,5
2019-04-16T03:11:45.527Z,5.1
2019-04-16T03:12:42.899Z,5.01
2019-04-16T03:13:42.906Z,4.97
2019-04-16T03:14:42.956Z,4.98
2019-04-16T03:15:42.923Z,4.97
2019-04-16T03:16:43.927Z,4.92
2019-04-16T03:17:47.561Z,4.94
2019-04-16T03:18:46.743Z,4.98
2019-04-16T03:19:44.275Z,4.95
2019-04-16T03:20:42.948Z,5.04
2019-04-16T03:21:42.958Z,5.01
2019-04-16T03:22:42.949Z,5.07
2019-04-16T03:23:43.112Z,4.9
2019-04-16T03:24:45.397Z,4.94
2019-04-16T03:25:46.590Z,5.02
2019-04-16T03:26:44.292Z,4.9
2019-04-16T03:27:42.938Z,5.01
2019-04-16T03:28:42.960Z,5.05
2019-04-16T03:29:42.993Z,5.12
2019-04-16T03:30:47.772Z,5.18
2019-04-16T03:31:42.926Z,5.1
2019-04-16T03:32:42.887Z,5.19
2019-04-16T03:33:51.721Z,4.92
2019-04-16T03:34:42.940Z,5.02
2019-04-16T03:35:42.985Z,4.97
2019-04-16T03:36:42.959Z,4.98
2019-04-16T03:37:43.003Z,5.05
2019-04-16T03:38:47.204Z,5.13
2019-04-16T03:39:54.488Z,5.1
2019-04-16T03:40:42.966Z,5.16
2019-04-16T03:41:42.945Z,5.16
2019-04-16T03:42:43.076Z,5.07
2019-04-16T03:43:42.959Z,4.98
2019-04-16T03:44:42.908Z,4.92
2019-04-16T03:45:46.147Z,4.78
2019-04-16T03:46:48.983Z,4.78
2019-04-16T03:47:43.046Z,4.84
2019-04-16T03:50:50.404Z,4.86
2019-04-16T03:51:05.803Z,4.95
2019-04-16T03:52:01.452Z,4.86
2019-04-16T03:53:01.502Z,4.82
2019-04-16T03:54:04.607Z,4.78
2019-04-16T03:55:01.427Z,4.87
2019-04-16T03:56:03.582Z,4.87
2019-04-16T03:57:05.048Z,4.82
2019-04-16T03:58:05.044Z,4.87
2019-04-16T03:59:01.469Z,4.76
2019-04-16T04:00:03.571Z,4.97
2019-04-16T04:01:01.424Z,4.94
2019-04-16T04:02:01.472Z,4.92
2019-04-16T04:03:01.459Z,5.04
2019-04-16T04:04:02.878Z,5
2019-04-16T04:05:09.484Z,4.92
2019-04-16T04:06:03.462Z,4.9
2019-04-16T04:07:01.444Z,5.02
2019-04-16T04:08:01.489Z,5.13
2019-04-16T04:09:01.438Z,5.1
2019-04-16T04:10:04.114Z,5.25
2019-04-16T04:11:01.525Z,5.1
2019-04-16T04:12:01.469Z,5.08
2019-04-16T04:13:04.573Z,5
2019-04-16T04:14:01.419Z,5.02
2019-04-16T04:15:01.502Z,4.95
2019-04-16T04:16:06.237Z,5.01
2019-04-16T04:17:05.141Z,4.87
2019-04-16T04:18:01.487Z,4.86
2019-04-16T04:19:01.489Z,5.01
2019-04-16T04:20:01.475Z,5
2019-04-16T04:21:01.508Z,4.97
2019-04-16T04:22:01.454Z,4.79
2019-04-16T04:23:02.869Z,5.04
2019-04-16T04:24:05.152Z,5.01
2019-04-16T04:25:06.810Z,4.97
2019-04-16T04:26:01.496Z,4.9
2019-04-16T04:27:01.442Z,4.95
2019-04-16T04:28:01.795Z,4.97
2019-04-16T04:29:01.477Z,4.89
2019-04-16T04:30:02.588Z,4.97
2019-04-16T04:31:04.538Z,4.9
2019-04-16T04:32:05.863Z,4.98
2019-04-16T04:33:01.487Z,4.97
2019-04-16T04:34:01.507Z,5.04
2019-04-16T04:35:01.577Z,5.02
2019-04-16T04:36:01.559Z,4.95
2019-04-16T04:37:04.258Z,4.9
2019-04-16T04:38:04.986Z,4.95
2019-04-16T04:39:01.503Z,4.89
2019-04-16T04:40:01.604Z,4.89
2019-04-16T04:41:05.112Z,4.94
2019-04-16T04:42:02.470Z,4.94
2019-04-16T04:43:04.195Z,4.83
2019-04-16T04:44:06.725Z,4.89
2019-04-16T04:45:01.669Z,4.98
2019-04-16T04:46:01.521Z,4.92
2019-04-16T04:47:01.532Z,4.95
2019-04-16T04:50:09.583Z,5.16
2019-04-16T04:50:20.691Z,5.12
2019-04-16T04:51:20.659Z,5.12
2019-04-16T04:52:20.727Z,5.19
2019-04-16T04:53:24.601Z,5.19
2019-04-16T04:54:24.649Z,5.23
2019-04-16T04:55:23.341Z,5.28
2019-04-16T04:56:27.629Z,5.31
2019-04-16T04:57:20.673Z,5.31
2019-04-16T04:58:20.686Z,5.26
2019-04-16T04:59:20.688Z,5.36
2019-04-16T05:00:20.765Z,5.36
2019-04-16T05:01:20.721Z,5.33
2019-04-16T05:02:21.173Z,5.34
2019-04-16T05:03:22.064Z,5.41
2019-04-16T05:04:24.842Z,5.36
2019-04-16T05:05:25.534Z,5.43
2019-04-16T05:06:20.842Z,5.38
2019-04-16T05:07:20.914Z,5.34
2019-04-16T05:08:20.745Z,5.19
2019-04-16T05:09:20.887Z,5.37
2019-04-16T05:10:20.746Z,5.49
2019-04-16T05:11:22.285Z,5.54
2019-04-16T05:12:25.917Z,5.62
2019-04-16T05:13:23.859Z,5.51
2019-04-16T05:14:20.751Z,5.58
2019-04-16T05:15:20.877Z,5.61
2019-04-16T05:16:20.842Z,5.62
2019-04-16T05:17:20.706Z,5.72
2019-04-16T05:18:20.693Z,5.81
2019-04-16T05:19:21.073Z,5.9
2019-04-16T05:20:22.159Z,5.94
2019-04-16T05:21:24.506Z,5.95
2019-04-16T05:22:24.160Z,5.97
2019-04-16T05:23:24.608Z,6.12
2019-04-16T05:24:20.737Z,6.05
2019-04-16T05:25:20.680Z,6.22
2019-04-16T05:26:20.726Z,6.25
2019-04-16T05:27:21.100Z,6.28
2019-04-16T05:28:20.693Z,6.35
2019-04-16T05:29:23.285Z,6.5
2019-04-16T05:30:25.931Z,6.46
2019-04-16T05:31:24.075Z,6.5
2019-04-16T05:32:20.663Z,6.5
2019-04-16T05:33:20.997Z,6.54
2019-04-16T05:34:23.669Z,6.67
2019-04-16T05:35:20.705Z,6.64
2019-04-16T05:36:24.023Z,6.57
2019-04-16T05:37:24.487Z,6.72
2019-04-16T05:38:25.824Z,6.78
2019-04-16T05:39:20.770Z,6.83
2019-04-16T05:40:20.758Z,6.85
2019-04-16T05:41:26.328Z,6.86
2019-04-16T05:42:22.362Z,6.78
2019-04-16T05:43:22.349Z,6.87
2019-04-16T05:44:21.020Z,6.87
2019-04-16T05:45:21.169Z,6.95
2019-04-16T05:46:20.766Z,7.18
2019-04-16T05:47:23.543Z,7.28
2019-04-16T05:48:23.709Z,7.36
2019-04-16T05:49:24.548Z,7.51
2019-04-16T05:50:21.281Z,7.58
2019-04-16T05:51:20.738Z,7.81
2019-04-16T05:52:20.840Z,8.01
2019-04-16T05:53:20.715Z,8.21
2019-04-16T05:54:20.967Z,8.38
2019-04-16T05:55:23.289Z,8.53
2019-04-16T05:56:26.364Z,8.74
2019-04-16T05:57:25.595Z,8.97
2019-04-16T05:58:20.765Z,9.18
2019-04-16T05:59:20.695Z,9.3
2019-04-16T06:00:20.900Z,9.44
2019-04-16T06:01:20.809Z,9.54
2019-04-16T06:02:25.131Z,9.72
2019-04-16T06:03:26.157Z,9.87
2019-04-16T06:04:24.203Z,10.15
2019-04-16T06:05:20.712Z,10.12
2019-04-16T06:06:20.801Z,10.42
2019-04-16T06:07:20.996Z,10.53
2019-04-16T06:08:20.769Z,10.61
2019-04-16T06:09:20.751Z,10.67
2019-04-16T06:10:24.099Z,10.95
2019-04-16T06:11:38.476Z,10.97
2019-04-16T06:12:20.754Z,11.18
2019-04-16T06:13:20.782Z,11
2019-04-16T06:14:25.779Z,11.25
2019-04-16T06:15:25.337Z,10.94
2019-04-16T06:16:23.875Z,10.89
2019-04-16T06:17:20.802Z,10.9
2019-04-16T06:18:23.498Z,11.23
2019-04-16T06:19:20.897Z,11.51
2019-04-16T06:20:24.898Z,11.76
2019-04-16T06:21:22.584Z,11.88
2019-04-16T06:22:20.774Z,12.32
2019-04-16T06:23:20.784Z,12.48
2019-04-16T06:24:20.890Z,12.66
2019-04-16T06:25:21.122Z,12.72
2019-04-16T06:26:22.375Z,12.9
2019-04-16T06:27:20.795Z,12.76
2019-04-16T06:28:20.754Z,12.98
2019-04-16T06:30:25.905Z,13.21
2019-04-16T06:30:41.631Z,12.91
2019-04-16T06:31:45.512Z,12.76
2019-04-16T06:32:41.574Z,12.88
2019-04-16T06:33:41.512Z,13.4
2019-04-16T06:34:41.558Z,13.46
2019-04-16T06:35:48.752Z,13.6
2019-04-16T06:36:41.533Z,13.85
2019-04-16T06:37:41.577Z,13.91
2019-04-16T06:38:41.585Z,13.87
2019-04-16T06:39:41.558Z,14.15
2019-04-16T06:40:41.864Z,14.18
2019-04-16T06:41:52.611Z,14.37
2019-04-16T06:42:43.900Z,14.26
2019-04-16T06:43:41.639Z,14.51
2019-04-16T06:44:41.558Z,14.68
2019-04-16T06:45:43.019Z,14.67
2019-04-16T06:46:44.977Z,14.58
2019-04-16T06:47:44.559Z,14.79
2019-04-16T06:48:42.428Z,14.79
2019-04-16T06:49:48.084Z,14.96
2019-04-16T06:50:45.925Z,15.04
2019-04-16T06:51:46.298Z,14.55
2019-04-16T06:52:41.535Z,14.82
2019-04-16T06:53:41.622Z,14.89
2019-04-16T06:54:41.588Z,15.33
2019-04-16T06:55:42.941Z,15.15
2019-04-16T06:56:45.228Z,15.7
2019-04-16T06:57:45.292Z,15.78
2019-04-16T07:00:09.862Z,15.84
2019-04-16T07:01:08.555Z,16.21
2019-04-16T07:02:07.556Z,16.39
2019-04-16T07:03:08.042Z,16.51
2019-04-16T07:04:06.835Z,16.74
2019-04-16T07:05:07.155Z,16.91
2019-04-16T07:06:09.539Z,17.02
2019-04-16T07:07:10.665Z,17.13
2019-04-16T07:08:05.467Z,17.37
2019-04-16T07:09:05.701Z,17.12
2019-04-16T07:10:06.074Z,16.87
2019-04-16T07:11:05.649Z,16.91
2019-04-16T07:12:05.504Z,17.14
2019-04-16T07:13:09.895Z,17.1
2019-04-16T07:14:05.481Z,17.12
2019-04-16T07:15:05.489Z,17.22
2019-04-16T07:16:05.868Z,16.86
2019-04-16T07:17:06.181Z,17.22
2019-04-16T07:18:10.520Z,17.34
2019-04-16T07:19:10.102Z,16.98
2019-04-16T07:20:07.387Z,16.87
2019-04-16T07:21:05.547Z,16.89
2019-04-16T07:22:05.538Z,16.92
2019-04-16T07:23:05.547Z,16.65
2019-04-16T07:24:05.738Z,16.74
2019-04-16T07:25:09.730Z,16.47
2019-04-16T07:26:13.347Z,15.98
2019-04-16T07:27:05.681Z,16.08
2019-04-16T07:28:05.681Z,16.39
2019-04-16T07:29:05.701Z,16.86
2019-04-16T07:30:11.897Z,16.54
2019-04-16T07:31:05.925Z,16.18
2019-04-16T07:32:06.258Z,16.24
2019-04-16T07:33:06.530Z,16.18
2019-04-16T07:34:05.556Z,16.31
2019-04-16T07:35:05.583Z,16.58
2019-04-16T07:36:05.727Z,16.98
2019-04-16T07:37:07.108Z,17.16
2019-04-16T07:38:14.104Z,17.12
2019-04-16T07:39:08.473Z,16.91
2019-04-16T07:40:11.801Z,16.91
2019-04-16T07:41:08.265Z,16.94
2019-04-16T07:42:26.281Z,16.89
2019-04-16T07:43:05.999Z,17.09
2019-04-16T07:44:13.805Z,17.24
2019-04-16T07:45:05.578Z,17.12
2019-04-16T07:51:45.293Z,16.92
2019-04-16T07:52:47.757Z,17.04
2019-04-16T07:53:49.948Z,17.14
2019-04-16T07:54:45.244Z,17.13
2019-04-16T07:55:45.276Z,17.38
2019-04-16T07:56:45.283Z,17.63
2019-04-16T07:57:45.251Z,17.56
2019-04-16T07:58:45.250Z,17.76
2019-04-16T07:59:45.261Z,17.88
2019-04-16T08:00:46.646Z,17.68
2019-04-16T08:01:49.984Z,17.79
2019-04-16T08:02:45.266Z,17.78
2019-04-16T08:03:45.374Z,18
2019-04-16T08:04:45.249Z,18
2019-04-16T08:05:46.989Z,17.66
2019-04-16T08:06:49.389Z,17.53
2019-04-16T08:07:45.292Z,17.82
2019-04-16T08:08:45.304Z,17.41
2019-04-16T08:10:00.970Z,17.8
2019-04-16T08:16:53.524Z,18.26
2019-04-16T08:17:54.345Z,18.21
2019-04-16T08:18:53.165Z,18.12
2019-04-16T08:19:57.965Z,18.51
2019-04-16T08:21:13.639Z,18.6
2019-04-16T08:21:53.164Z,18.73
2019-04-16T08:22:53.397Z,18.83
2019-04-16T08:23:57.043Z,18.96
2019-04-16T08:24:57.187Z,18.88
2019-04-16T08:26:11.269Z,19.07
2019-04-16T08:26:53.502Z,18.73
2019-04-16T08:27:56.755Z,18.68
2019-04-16T08:28:53.186Z,18.85
2019-04-16T08:29:53.517Z,19.04
2019-04-16T08:30:53.200Z,19.08
2019-04-16T08:31:53.211Z,19.24
2019-04-16T08:32:54.178Z,19.35
2019-04-16T08:33:53.258Z,19.62
2019-04-16T08:34:53.165Z,19.62
2019-04-16T08:35:53.214Z,19.57
2019-04-16T08:36:53.260Z,19.55
2019-04-16T08:37:57.759Z,19.89
2019-04-16T08:38:53.177Z,19.64
2019-04-16T08:40:00.973Z,19.7
2019-04-16T08:40:53.159Z,19.57
2019-04-16T08:41:57.584Z,19.67
2019-04-16T08:42:56.925Z,19.63
2019-04-16T08:43:53.218Z,19.71
2019-04-16T08:44:53.266Z,19.87
2019-04-16T08:45:53.212Z,20.03
2019-04-16T08:46:53.215Z,20.12
2019-04-16T08:47:53.288Z,20.29
2019-04-16T08:48:57.163Z,19.44
2019-04-16T08:49:59.070Z,19.85
2019-04-16T08:50:57.794Z,19.45
2019-04-16T08:51:53.276Z,19.57
2019-04-16T08:52:53.282Z,19.89
2019-04-16T08:53:53.260Z,20.03
2019-04-16T08:54:57.654Z,20.04
2019-04-16T08:55:53.221Z,19.6
2019-04-16T08:56:53.365Z,19.67
2019-04-16T08:57:54.638Z,19.78
2019-04-16T08:58:56.414Z,19.96
2019-04-16T08:59:53.299Z,20
2019-04-16T09:00:53.332Z,19.93
2019-04-16T09:01:56.576Z,19.93
2019-04-16T09:02:57.552Z,19.81
2019-04-16T09:03:53.268Z,20.21
2019-04-16T09:04:53.251Z,20.24
2019-04-16T09:05:53.285Z,20.12
2019-04-16T09:06:53.273Z,20.04
2019-04-16T09:07:56.103Z,19.78
2019-04-16T09:09:11.479Z,19.78
2019-04-16T09:10:16.124Z,20.12
2019-04-16T09:10:53.290Z,20.49
2019-04-16T09:11:54.019Z,20.5
2019-04-16T09:13:08.385Z,20.83
2019-04-16T09:13:53.741Z,20.92
2019-04-16T09:14:58.064Z,20.9
2019-04-16T09:15:53.278Z,20.9
2019-04-16T09:16:53.249Z,20.83
2019-04-16T09:17:53.232Z,20.74
2019-04-16T09:18:53.241Z,20.56
2019-04-16T09:19:53.263Z,20.92
2019-04-16T09:20:53.266Z,20.96
2019-04-16T09:21:53.280Z,20.78
2019-04-16T09:22:58.875Z,21.23
2019-04-16T09:23:55.903Z,21.1
2019-04-16T09:24:53.303Z,21.05
2019-04-16T09:25:53.325Z,21.15
2019-04-16T09:26:58.152Z,21.37
2019-04-16T09:27:53.307Z,21.1
2019-04-16T09:28:53.366Z,21.26
2019-04-16T09:29:53.275Z,21.72
2019-04-16T09:30:55.835Z,21.75
2019-04-16T09:31:57.797Z,21.44
2019-04-16T09:32:53.333Z,21.44
2019-04-16T09:33:53.296Z,21.41
2019-04-16T09:34:53.492Z,21.5
2019-04-16T09:35:53.355Z,21.66
2019-04-16T09:36:53.426Z,21.78
2019-04-16T09:37:53.471Z,21.8
2019-04-16T09:38:53.430Z,21.37
2019-04-16T09:40:15.798Z,21.65
2019-04-16T09:40:54.776Z,21.91
2019-04-16T09:41:53.341Z,21.43
2019-04-16T09:42:53.473Z,21.32
2019-04-16T09:43:59.072Z,21.72
2019-04-16T09:44:53.696Z,21.94
2019-04-16T09:45:53.315Z,21.7
2019-04-16T09:47:04.972Z,21.72
2019-04-16T09:47:53.279Z,21.7
2019-04-16T09:48:55.333Z,21.91
2019-04-16T09:49:53.296Z,22.25
2019-04-16T09:50:53.324Z,22.46
2019-04-16T09:51:56.201Z,21.56
2019-04-16T09:52:57.592Z,22.01
2019-04-16T09:53:53.383Z,22.06
2019-04-16T09:54:53.373Z,22
2019-04-16T09:55:55.856Z,22.23
2019-04-16T09:56:53.328Z,22.28
2019-04-16T09:57:53.287Z,21.99
2019-04-16T09:58:53.357Z,22.21
2019-04-16T09:59:53.694Z,22.08
2019-04-16T10:00:53.345Z,22.22
2019-04-16T10:01:53.336Z,21.94
2019-04-16T10:02:55.103Z,21.81
2019-04-16T10:03:56.380Z,21.81
2019-04-16T10:04:53.339Z,21.99
2019-04-16T10:05:53.377Z,21.99
2019-04-16T10:06:53.352Z,22.25
2019-04-16T10:07:53.351Z,22.46
2019-04-16T10:08:56.389Z,22.65
2019-04-16T10:10:02.367Z,22.58
2019-04-16T10:10:53.449Z,22.71
2019-04-16T10:11:53.460Z,22.28
2019-04-16T10:12:53.380Z,22.46
2019-04-16T10:13:53.411Z,21.94
2019-04-16T10:14:53.386Z,22.47
2019-04-16T10:15:55.607Z,22.19
2019-04-16T10:16:53.389Z,22.43
2019-04-16T10:17:53.355Z,22.58
2019-04-16T10:18:53.402Z,22.77
2019-04-16T10:19:53.370Z,22.47
2019-04-16T10:20:53.456Z,22.58
2019-04-16T10:21:58.646Z,22.47
2019-04-16T10:22:53.385Z,22.49
2019-04-16T10:23:53.368Z,22.31
2019-04-16T10:24:53.450Z,22.58
2019-04-16T10:25:53.381Z,22.74
2019-04-16T10:26:53.392Z,23.02
2019-04-16T10:27:53.426Z,23.23
2019-04-16T10:28:53.440Z,23.16
2019-04-16T10:29:53.470Z,23.17
2019-04-16T10:30:53.457Z,23.1
2019-04-16T10:31:53.414Z,23.54
2019-04-16T10:32:53.450Z,23.44
2019-04-16T10:33:53.408Z,23.36
2019-04-16T10:34:53.536Z,23.4
2019-04-16T10:35:53.459Z,23.18
2019-04-16T10:36:53.443Z,22.78
2019-04-16T10:37:53.425Z,23.01
2019-04-16T10:38:53.463Z,22.88
2019-04-16T10:40:04.614Z,22.63
2019-04-16T10:40:53.462Z,22.36
2019-04-16T10:41:56.236Z,22.77
2019-04-16T10:42:53.450Z,22.65
2019-04-16T10:43:53.466Z,22.7
2019-04-16T10:44:53.474Z,23.16
2019-04-16T10:45:53.465Z,23.47
2019-04-16T10:46:53.444Z,23.28
2019-04-16T10:47:53.454Z,23.1
2019-04-16T10:48:53.733Z,23.13
2019-04-16T10:49:53.606Z,23.42
2019-04-16T10:50:53.726Z,23.2
2019-04-16T10:51:53.781Z,23.23
2019-04-16T10:52:57.283Z,23.67
2019-04-16T10:53:53.608Z,23.62
2019-04-16T10:54:53.485Z,23.48
2019-04-16T10:55:53.498Z,23.58
2019-04-16T10:56:56.533Z,23.62
2019-04-16T10:57:53.482Z,23.85
2019-04-16T10:58:53.559Z,23.88
2019-04-16T10:59:53.482Z,23.44
2019-04-16T11:00:53.540Z,23.63
2019-04-16T11:01:53.515Z,23.26
2019-04-16T11:02:53.506Z,23.42
2019-04-16T11:05:15.191Z,24.04
2019-04-16T11:06:12.302Z,24.14
2019-04-16T11:07:12.376Z,24.18
2019-04-16T11:08:13.315Z,24.19
2019-04-16T11:09:12.534Z,24.26
2019-04-16T11:10:14.495Z,23.84
2019-04-16T11:11:12.340Z,24.03
2019-04-16T11:12:12.456Z,23.99
2019-04-16T11:13:12.385Z,23.88
2019-04-16T11:14:12.353Z,23.88
2019-04-16T11:15:12.351Z,23.96
2019-04-16T11:16:12.341Z,23.82
2019-04-16T11:17:12.348Z,24.1
2019-04-16T11:18:12.648Z,24.29
2019-04-16T11:19:12.504Z,24.37
2019-04-16T11:20:12.375Z,24.55
2019-04-16T11:21:12.369Z,24.28
2019-04-16T11:22:12.400Z,24.38
2019-04-16T11:23:13.356Z,23.99
2019-04-16T11:24:12.376Z,23.73
2019-04-16T11:25:12.402Z,23.84
2019-04-16T11:26:12.344Z,23.95
2019-04-16T11:27:12.357Z,23.48
2019-04-16T11:28:14.176Z,23.73
2019-04-16T11:29:12.397Z,23.63
2019-04-16T11:30:12.392Z,23.71
2019-04-16T11:31:12.707Z,23.48
2019-04-16T11:32:12.494Z,23.79
2019-04-16T11:33:12.471Z,23.94
2019-04-16T11:34:12.565Z,23.71
2019-04-16T11:35:16.929Z,23.77
2019-04-16T11:36:24.715Z,23.94
2019-04-16T11:37:14.540Z,23.91
2019-04-16T11:38:12.418Z,23.89
2019-04-16T11:39:12.625Z,23.85
2019-04-16T11:40:12.631Z,24.19
2019-04-16T11:41:12.405Z,23.86
2019-04-16T11:42:12.720Z,23.85
2019-04-16T11:43:12.574Z,23.91
2019-04-16T11:44:21.557Z,23.94
2019-04-16T11:45:12.670Z,24.03
2019-04-16T11:46:12.602Z,24.18
2019-04-16T11:47:12.458Z,24.16
2019-04-16T11:48:12.500Z,24.31
2019-04-16T11:49:12.595Z,24.43
2019-04-16T11:50:12.515Z,24.4
2019-04-16T11:51:12.790Z,24.19
2019-04-16T11:55:41.309Z,24.01
2019-04-16T12:00:58.461Z,24.18
2019-04-16T12:01:10.270Z,24.18
2019-04-16T12:02:10.065Z,23.76
2019-04-16T12:03:10.137Z,23.76
2019-04-16T12:04:10.856Z,23.95
2019-04-16T12:05:09.951Z,23.92
2019-04-16T12:06:09.835Z,23.81
2019-04-16T12:07:11.654Z,23.86
2019-04-16T12:08:09.816Z,24.06
2019-04-16T12:09:09.766Z,23.84
2019-04-16T12:10:09.875Z,23.95
2019-04-16T12:11:09.860Z,24.03
2019-04-16T12:12:09.854Z,24.11
2019-04-16T12:13:09.987Z,23.94
2019-04-16T12:14:28.612Z,23.88
2019-04-16T12:15:09.769Z,24.11
2019-04-16T12:16:09.797Z,24.01
2019-04-16T12:17:09.773Z,23.74
2019-04-16T12:18:09.935Z,23.82
2019-04-16T12:19:09.728Z,23.81
2019-04-16T12:20:09.886Z,24.09
2019-04-16T12:21:09.913Z,24.1
2019-04-16T12:22:09.856Z,23.86
2019-04-16T12:23:09.784Z,24.1
2019-04-16T12:24:09.821Z,24
2019-04-16T12:25:09.749Z,24.32
2019-04-16T12:26:12.425Z,24.4
2019-04-16T12:27:09.975Z,24.31
2019-04-16T12:28:15.351Z,24.21
2019-04-16T12:29:10.075Z,24.44
2019-04-16T12:30:09.827Z,24.55
2019-04-16T12:31:09.851Z,24.31
2019-04-16T12:32:10.953Z,24.34
2019-04-16T12:33:16.577Z,24.51
2019-04-16T12:34:09.839Z,24.53
2019-04-16T12:35:10.122Z,24.34
2019-04-16T12:36:12.728Z,24.47
2019-04-16T12:37:10.038Z,24.36
2019-04-16T12:38:18.433Z,24.44
2019-04-16T12:39:10.027Z,24.4
2019-04-16T12:40:10.030Z,24.11
2019-04-16T12:41:09.875Z,24.09
2019-04-16T12:42:09.845Z,24.06
2019-04-16T12:43:14.641Z,24.38
2019-04-16T12:44:10.110Z,24.5
2019-04-16T12:45:12.168Z,24.63
2019-04-16T12:46:10.035Z,24.55
2019-04-16T12:47:10.030Z,24.31
2019-04-16T12:48:09.858Z,24.11
2019-04-16T12:49:09.898Z,24.34
2019-04-16T12:50:10.033Z,24.5
2019-04-16T12:51:09.874Z,24.04
2019-04-16T12:52:15.205Z,24.1
2019-04-16T12:53:09.968Z,24.43
2019-04-16T12:54:09.956Z,24.51
2019-04-16T12:55:09.943Z,23.84
2019-04-16T12:56:13.288Z,23.96
2019-04-16T12:57:16.699Z,23.84
2019-04-16T12:58:09.789Z,23.74
2019-04-16T12:59:09.836Z,23.32
2019-04-16T13:00:10.219Z,23.81
2019-04-16T13:01:10.400Z,24.11
2019-04-16T13:02:15.039Z,24.46
2019-04-16T13:03:10.142Z,24.09
2019-04-16T13:04:09.825Z,23.91
2019-04-16T13:05:09.851Z,24
2019-04-16T13:06:09.858Z,24.1
2019-04-16T13:07:09.907Z,24.29
2019-04-16T13:08:10.261Z,24.16
2019-04-16T13:09:09.854Z,24
2019-04-16T13:10:09.897Z,24.13
2019-04-16T13:11:13.326Z,23.92
2019-04-16T13:12:14.193Z,23.67
2019-04-16T13:13:09.841Z,23.79
2019-04-16T13:14:10.009Z,24.21
2019-04-16T13:15:09.956Z,24.01
2019-04-16T13:16:10.218Z,24.48
2019-04-16T13:17:09.843Z,24.65
2019-04-16T13:18:09.992Z,23.96
2019-04-16T13:19:10.325Z,24.38
2019-04-16T13:20:10.030Z,24.62
2019-04-16T13:21:11.182Z,24.43
2019-04-16T13:22:09.892Z,24.1
2019-04-16T13:23:09.884Z,23.96
2019-04-16T13:24:10.394Z,24.09
2019-04-16T13:25:10.138Z,24.07
2019-04-16T13:26:14.593Z,24.21
2019-04-16T13:27:10.113Z,24.13
2019-04-16T13:28:09.942Z,24.06
2019-04-16T13:29:09.904Z,24.19
2019-04-16T13:30:10.133Z,23.95
2019-04-16T13:31:10.126Z,23.86
2019-04-16T13:32:09.979Z,23.92